createdAt,value
2023-04-17T00:01:43.245Z,99.91
2023-04-17T00:06:46.527Z,99.98
2023-04-17T00:11:52.970Z,100.00
2023-04-17T00:16:56.668Z,100.00
2023-04-17T00:22:00.268Z,100.00
2023-04-17T00:27:03.501Z,100.00
2023-04-17T00:32:16.824Z,100.00
2023-04-17T00:37:20.256Z,100.00
2023-04-17T00:42:23.802Z,100.00
2023-04-17T00:47:27.766Z,100.00
2023-04-17T00:52:44.261Z,100.00
2023-04-17T00:57:50.778Z,100.00
2023-04-17T01:02:57.961Z,100.00
2023-04-17T01:08:03.772Z,100.00
2023-04-17T01:13:09.070Z,100.00
2023-04-17T01:18:12.997Z,100.00
2023-04-17T01:23:16.579Z,100.00
2023-04-17T01:28:20.172Z,100.00
2023-04-17T01:33:23.960Z,100.00
2023-04-17T01:38:27.389Z,100.00
2023-04-17T01:43:50.492Z,100.00
2023-04-17T01:48:54.527Z,100.00
2023-04-17T01:53:57.851Z,100.00
2023-04-17T01:59:01.566Z,100.00
2023-04-17T02:04:05.566Z,100.00
2023-04-17T02:09:09.825Z,100.00
2023-04-17T02:14:18.206Z,100.00
2023-04-17T02:19:25.116Z,100.00
2023-04-17T02:24:28.647Z,100.00
2023-04-17T02:29:41.812Z,100.00
2023-04-17T02:34:45.554Z,100.00
2023-04-17T02:39:49.807Z,100.00
2023-04-17T02:45:06.577Z,100.00
2023-04-17T02:50:11.228Z,100.00
2023-04-17T02:55:48.472Z,100.00
2023-04-17T03:01:01.554Z,100.00
2023-04-17T03:06:05.945Z,100.00
2023-04-17T03:11:13.026Z,100.00
2023-04-17T03:16:16.995Z,100.00
2023-04-17T03:21:24.089Z,100.00
2023-04-17T03:26:27.930Z,100.00
2023-04-17T03:31:31.933Z,100.00
2023-04-17T03:36:36.446Z,100.00
2023-04-17T03:41:41.025Z,100.00
2023-04-17T03:46:46.550Z,100.00
2023-04-17T03:52:13.692Z,100.00
2023-04-17T03:57:20.706Z,100.00
2023-04-17T04:02:25.836Z,100.00
2023-04-17T04:07:30.790Z,100.00
2023-04-17T04:12:57.479Z,100.00
2023-04-17T04:18:24.436Z,100.00
2023-04-17T04:23:30.857Z,100.00
2023-04-17T04:28:34.471Z,100.00
2023-04-17T04:33:37.871Z,100.00
2023-04-17T04:38:45.743Z,100.00
2023-04-17T04:43:56.551Z,100.00
2023-04-17T04:49:00.556Z,100.00
2023-04-17T04:54:04.836Z,100.00
2023-04-17T04:59:10.299Z,100.00
2023-04-17T05:04:16.022Z,100.00
2023-04-17T05:09:51.350Z,100.00
2023-04-17T05:14:54.856Z,100.00
2023-04-17T05:19:59.177Z,100.00
2023-04-17T05:25:27.746Z,100.00
2023-04-17T05:30:35.252Z,100.00
2023-04-17T05:35:52.914Z,100.00
2023-04-17T05:41:01.809Z,100.00
2023-04-17T05:46:05.325Z,100.00
2023-04-17T05:51:09.331Z,100.00
2023-04-17T05:56:12.743Z,100.00
2023-04-17T06:01:18.271Z,100.00
2023-04-17T06:06:22.095Z,100.00
2023-04-17T06:11:25.781Z,100.00
2023-04-17T06:16:37.288Z,100.00
2023-04-17T06:21:40.997Z,100.00
2023-04-17T06:26:44.413Z,100.00
2023-04-17T06:31:47.793Z,98.81
2023-04-17T06:36:53.660Z,97.45
2023-04-17T06:42:17.410Z,96.01
2023-04-17T06:47:21.088Z,94.44
2023-04-17T06:52:27.182Z,94.50
2023-04-17T06:57:30.731Z,93.85
2023-04-17T07:02:34.327Z,94.09
2023-04-17T07:07:38.048Z,93.64
2023-04-17T07:12:43.971Z,93.16
2023-04-17T07:17:47.386Z,93.67
2023-04-17T07:22:51.181Z,93.49
2023-04-17T07:27:55.171Z,92.41
2023-04-17T07:32:58.862Z,91.87
2023-04-17T07:38:04.118Z,91.26
2023-04-17T07:43:07.434Z,91.40
2023-04-17T07:48:11.186Z,89.46
2023-04-17T07:53:14.777Z,88.18
2023-04-17T07:58:18.329Z,88.10
2023-04-17T08:03:31.931Z,87.25
2023-04-17T08:08:35.484Z,87.76
2023-04-17T08:13:38.770Z,86.33
2023-04-17T08:18:42.239Z,86.02
2023-04-17T08:23:45.784Z,86.26
2023-04-17T08:28:53.836Z,86.75
2023-04-17T08:34:06.528Z,86.73
2023-04-17T08:39:33.194Z,86.67
2023-04-17T08:44:39.777Z,87.33
2023-04-17T08:49:44.107Z,87.29
2023-04-17T08:54:50.981Z,87.17
2023-04-17T08:59:54.827Z,87.40
2023-04-17T09:05:09.797Z,86.78
2023-04-17T09:10:13.142Z,87.01
2023-04-17T09:15:17.246Z,86.70
2023-04-17T09:20:21.259Z,86.64
2023-04-17T09:25:28.344Z,86.39
2023-04-17T09:30:37.433Z,85.72
2023-04-17T09:35:41.046Z,85.66
2023-04-17T09:40:46.949Z,86.08
2023-04-17T09:45:52.503Z,85.19
2023-04-17T09:50:56.994Z,83.91
2023-04-17T09:56:01.755Z,83.04
2023-04-17T10:01:05.932Z,82.81
2023-04-17T10:06:09.730Z,82.31
2023-04-17T10:11:13.802Z,82.18
2023-04-17T10:16:17.223Z,82.38
2023-04-17T10:21:22.721Z,82.20
2023-04-17T10:26:26.049Z,82.45
2023-04-17T10:32:07.669Z,82.33
2023-04-17T10:37:15.562Z,82.17
2023-04-17T10:42:21.111Z,81.87
2023-04-17T10:47:32.229Z,80.47
2023-04-17T10:52:42.016Z,78.50
2023-04-17T10:58:13.204Z,77.21
2023-04-17T11:03:17.526Z,76.69
2023-04-17T11:08:22.541Z,76.24
2023-04-17T11:13:26.009Z,76.15
2023-04-17T11:18:29.709Z,75.65
2023-04-17T11:23:36.410Z,75.76
2023-04-17T11:28:39.834Z,75.86
2023-04-17T11:33:43.441Z,75.40
2023-04-17T11:38:48.588Z,75.48
2023-04-17T11:43:52.101Z,73.55
2023-04-17T11:48:55.408Z,72.17
2023-04-17T11:53:59.646Z,71.15
2023-04-17T11:59:05.133Z,71.86
2023-04-17T12:04:21.216Z,70.98
2023-04-17T12:09:28.273Z,71.09
2023-04-17T12:14:32.443Z,71.53
2023-04-17T12:19:35.862Z,70.74
2023-04-17T12:24:39.265Z,71.64
2023-04-17T12:29:44.726Z,71.48
2023-04-17T12:34:48.925Z,71.15
2023-04-17T12:39:52.297Z,71.35
2023-04-17T12:44:55.774Z,71.86
2023-04-17T12:49:59.365Z,72.04
2023-04-17T12:55:04.152Z,72.08
2023-04-17T13:00:10.959Z,72.28
2023-04-17T13:05:14.240Z,72.80
2023-04-17T13:10:20.510Z,71.71
2023-04-17T13:15:27.005Z,71.27
2023-04-17T13:20:30.388Z,71.55
2023-04-17T13:25:33.850Z,70.88
2023-04-17T13:30:37.835Z,69.83
2023-04-17T13:35:41.573Z,69.72
2023-04-17T13:40:45.122Z,69.78
2023-04-17T13:45:49.835Z,68.80
2023-04-17T13:50:54.598Z,67.64
2023-04-17T13:55:57.806Z,67.17
2023-04-17T14:01:01.078Z,67.47
2023-04-17T14:06:07.238Z,66.77
2023-04-17T14:11:11.098Z,65.94
2023-04-17T14:16:19.181Z,65.77
2023-04-17T14:21:22.695Z,65.50
2023-04-17T14:26:28.715Z,65.06
2023-04-17T14:31:32.269Z,65.22
2023-04-17T14:36:35.980Z,65.27
2023-04-17T14:41:39.570Z,65.46
2023-04-17T14:46:43.434Z,65.80
2023-04-17T14:51:46.951Z,65.84
2023-04-17T14:56:50.736Z,65.65
2023-04-17T15:01:54.457Z,66.05
2023-04-17T15:07:10.153Z,66.23
2023-04-17T15:12:13.644Z,66.58
2023-04-17T15:17:17.299Z,66.08
2023-04-17T15:22:20.766Z,65.77
2023-04-17T15:27:24.677Z,65.76
2023-04-17T15:32:28.062Z,66.24
2023-04-17T15:37:31.301Z,65.86
2023-04-17T15:42:36.947Z,66.03
2023-04-17T15:47:40.572Z,66.51
2023-04-17T15:52:44.640Z,66.26
2023-04-17T15:57:48.042Z,66.17
2023-04-17T16:02:52.148Z,66.12
2023-04-17T16:07:55.941Z,66.62
2023-04-17T16:12:59.183Z,67.34
2023-04-17T16:18:02.458Z,67.31
2023-04-17T16:23:05.916Z,67.13
2023-04-17T16:28:09.249Z,67.42
2023-04-17T16:33:12.745Z,66.84
2023-04-17T16:38:16.265Z,67.14
2023-04-17T16:43:19.817Z,67.45
2023-04-17T16:48:23.298Z,67.52
2023-04-17T16:53:26.669Z,68.11
2023-04-17T16:58:30.079Z,68.43
2023-04-17T17:03:33.953Z,68.58
2023-04-17T17:08:37.164Z,68.43
2023-04-17T17:13:50.394Z,68.86
2023-04-17T17:18:54.541Z,69.29
2023-04-17T17:23:58.988Z,69.04
2023-04-17T17:29:02.597Z,68.50
2023-04-17T17:34:22.508Z,68.93
2023-04-17T17:39:29.265Z,69.53
2023-04-17T17:44:32.855Z,69.83
2023-04-17T17:49:36.193Z,70.20
2023-04-17T17:54:39.889Z,70.63
2023-04-17T17:59:44.047Z,70.94
2023-04-17T18:04:47.531Z,71.21
2023-04-17T18:09:56.709Z,71.60
2023-04-17T18:15:00.191Z,72.19
2023-04-17T18:20:03.849Z,72.58
2023-04-17T18:25:27.748Z,72.80
2023-04-17T18:30:31.673Z,73.20
2023-04-17T18:35:35.596Z,73.60
2023-04-17T18:40:39.378Z,73.82
2023-04-17T18:45:42.981Z,74.21
2023-04-17T18:50:46.833Z,74.43
2023-04-17T18:55:59.444Z,74.71
2023-04-17T19:01:05.395Z,75.17
2023-04-17T19:06:12.629Z,75.61
2023-04-17T19:11:16.211Z,75.90
2023-04-17T19:16:19.534Z,75.92
2023-04-17T19:21:23.223Z,76.23
2023-04-17T19:26:26.907Z,77.00
2023-04-17T19:31:31.882Z,78.16
2023-04-17T19:36:36.027Z,78.89
2023-04-17T19:41:40.236Z,79.25
2023-04-17T19:46:43.482Z,79.15
2023-04-17T19:51:46.615Z,79.34
2023-04-17T19:57:10.380Z,79.44
2023-04-17T20:02:14.078Z,79.52
2023-04-17T20:13:13.853Z,79.56
2023-04-17T20:18:17.920Z,79.76
2023-04-17T20:23:21.886Z,79.94
2023-04-17T20:28:25.103Z,80.30
2023-04-17T20:34:02.864Z,80.73
2023-04-17T20:39:12.942Z,80.55
2023-04-17T20:44:16.625Z,80.57
2023-04-17T20:49:20.141Z,80.97
2023-04-17T20:54:26.390Z,81.36
2023-04-17T20:59:37.371Z,81.56
2023-04-17T21:04:40.928Z,82.21
2023-04-17T21:09:44.172Z,82.61
2023-04-17T21:14:47.431Z,82.83
2023-04-17T21:20:21.764Z,83.20
2023-04-17T21:26:36.740Z,84.15
2023-04-17T21:32:07.235Z,84.52
2023-04-17T21:37:36.203Z,84.82
2023-04-17T21:42:42.861Z,84.86
2023-04-17T21:47:46.325Z,85.39
2023-04-17T21:52:50.178Z,85.49
2023-04-17T21:57:53.484Z,86.17
2023-04-17T22:02:56.946Z,87.07
2023-04-17T22:08:01.532Z,87.73
2023-04-17T22:13:05.544Z,88.20
2023-04-17T22:18:09.035Z,89.60
2023-04-17T22:23:12.521Z,91.14
2023-04-17T22:28:16.507Z,92.09
2023-04-17T22:33:39.920Z,93.27
2023-04-17T22:39:03.816Z,94.37
2023-04-17T22:44:07.326Z,96.15
2023-04-17T22:49:10.613Z,96.84
2023-04-17T22:54:22.149Z,97.83
2023-04-17T22:59:26.966Z,98.45
2023-04-17T23:04:53.265Z,99.05
2023-04-17T23:10:38.852Z,99.44
2023-04-17T23:15:42.850Z,100.00
2023-04-17T23:21:06.628Z,100.00
2023-04-17T23:26:20.131Z,100.00
2023-04-17T23:31:23.656Z,100.00
2023-04-17T23:36:27.088Z,100.00
2023-04-17T23:42:11.085Z,100.00
2023-04-17T23:47:14.442Z,100.00
2023-04-17T23:52:19.471Z,100.00
2023-04-17T23:57:22.832Z,100.00
